sensor_id;sensor_type;location;lat;lon;timestamp;pressure;altitude;pressure_sealevel;temperature;humidity
59951;BME280;45812;53.540;9.774;2023-02-12T00:01:34;103544.22;;;6.83;100.00
59951;BME280;45812;53.540;9.774;2023-02-12T00:03:59;103541.81;;;6.78;100.00
59951;BME280;45812;53.540;9.774;2023-02-12T00:06:25;103548.44;;;6.68;100.00
59951;BME280;45812;53.540;9.774;2023-02-12T00:08:52;103548.81;;;6.79;100.00
59951;BME280;45812;53.540;9.774;2023-02-12T00:11:23;103556.34;;;6.70;100.00
59951;BME280;45812;53.540;9.774;2023-02-12T00:13:50;103561.91;;;6.82;100.00
59951;BME280;45812;53.540;9.774;2023-02-12T00:16:18;103561.13;;;6.80;100.00
59951;BME280;45812;53.540;9.774;2023-02-12T00:18:44;103564.69;;;6.79;100.00
59951;BME280;45812;53.540;9.774;2023-02-12T00:21:10;103563.47;;;6.67;100.00
59951;BME280;45812;53.540;9.774;2023-02-12T00:23:38;103562.81;;;6.62;100.00
59951;BME280;45812;53.540;9.774;2023-02-12T00:26:10;103566.94;;;6.70;100.00
59951;BME280;45812;53.540;9.774;2023-02-12T00:28:36;103570.13;;;6.57;100.00
59951;BME280;45812;53.540;9.774;2023-02-12T00:31:22;103570.84;;;6.61;100.00
59951;BME280;45812;53.540;9.774;2023-02-12T00:33:47;103570.28;;;6.73;100.00
59951;BME280;45812;53.540;9.774;2023-02-12T00:36:15;103573.00;;;6.72;100.00
59951;BME280;45812;53.540;9.774;2023-02-12T00:38:41;103580.28;;;6.66;100.00
59951;BME280;45812;53.540;9.774;2023-02-12T00:41:07;103585.00;;;6.60;100.00
59951;BME280;45812;53.540;9.774;2023-02-12T00:43:32;103586.38;;;6.48;100.00
59951;BME280;45812;53.540;9.774;2023-02-12T00:45:58;103589.00;;;6.68;100.00
59951;BME280;45812;53.540;9.774;2023-02-12T00:48:23;103588.94;;;6.51;100.00
59951;BME280;45812;53.540;9.774;2023-02-12T00:50:49;103586.66;;;6.42;100.00
59951;BME280;45812;53.540;9.774;2023-02-12T00:53:14;103588.97;;;6.50;100.00
59951;BME280;45812;53.540;9.774;2023-02-12T00:55:39;103596.16;;;6.66;100.00
59951;BME280;45812;53.540;9.774;2023-02-12T00:58:05;103592.56;;;6.67;100.00
59951;BME280;45812;53.540;9.774;2023-02-12T01:00:30;103593.53;;;6.85;100.00
59951;BME280;45812;53.540;9.774;2023-02-12T01:02:56;103594.59;;;6.62;100.00
59951;BME280;45812;53.540;9.774;2023-02-12T01:05:21;103591.53;;;6.72;100.00
59951;BME280;45812;53.540;9.774;2023-02-12T01:07:50;103594.28;;;6.68;100.00
59951;BME280;45812;53.540;9.774;2023-02-12T01:10:16;103593.88;;;6.59;100.00
59951;BME280;45812;53.540;9.774;2023-02-12T01:12:42;103596.22;;;6.65;100.00
59951;BME280;45812;53.540;9.774;2023-02-12T01:15:08;103595.91;;;6.73;100.00
59951;BME280;45812;53.540;9.774;2023-02-12T01:17:35;103594.88;;;6.56;100.00
59951;BME280;45812;53.540;9.774;2023-02-12T01:20:00;103605.25;;;6.61;100.00
59951;BME280;45812;53.540;9.774;2023-02-12T01:22:25;103600.69;;;6.44;100.00
59951;BME280;45812;53.540;9.774;2023-02-12T01:24:50;103601.16;;;6.54;100.00
59951;BME280;45812;53.540;9.774;2023-02-12T01:27:16;103604.72;;;6.53;100.00
59951;BME280;45812;53.540;9.774;2023-02-12T01:29:41;103601.66;;;6.62;100.00
59951;BME280;45812;53.540;9.774;2023-02-12T01:32:09;103604.66;;;6.54;100.00
59951;BME280;45812;53.540;9.774;2023-02-12T01:34:34;103594.72;;;6.59;100.00
59951;BME280;45812;53.540;9.774;2023-02-12T01:36:59;103602.88;;;6.55;100.00
59951;BME280;45812;53.540;9.774;2023-02-12T01:39:25;103603.59;;;6.58;100.00
59951;BME280;45812;53.540;9.774;2023-02-12T01:41:50;103598.81;;;6.66;100.00
59951;BME280;45812;53.540;9.774;2023-02-12T01:44:20;103607.50;;;6.70;100.00
59951;BME280;45812;53.540;9.774;2023-02-12T01:46:55;103595.81;;;6.74;100.00
59951;BME280;45812;53.540;9.774;2023-02-12T01:49:44;103598.88;;;6.65;100.00
59951;BME280;45812;53.540;9.774;2023-02-12T01:52:23;103601.25;;;6.71;100.00
59951;BME280;45812;53.540;9.774;2023-02-12T01:54:52;103605.31;;;6.59;100.00
59951;BME280;45812;53.540;9.774;2023-02-12T01:57:20;103611.19;;;6.66;100.00
59951;BME280;45812;53.540;9.774;2023-02-12T01:59:47;103606.16;;;6.60;100.00
59951;BME280;45812;53.540;9.774;2023-02-12T02:02:15;103603.53;;;6.60;100.00
59951;BME280;45812;53.540;9.774;2023-02-12T02:04:45;103602.13;;;6.72;100.00
59951;BME280;45812;53.540;9.774;2023-02-12T02:07:13;103601.13;;;6.74;100.00
59951;BME280;45812;53.540;9.774;2023-02-12T02:09:39;103601.06;;;6.76;100.00
59951;BME280;45812;53.540;9.774;2023-02-12T02:12:05;103599.94;;;6.61;100.00
59951;BME280;45812;53.540;9.774;2023-02-12T02:14:52;103610.88;;;6.53;100.00
59951;BME280;45812;53.540;9.774;2023-02-12T02:17:36;103603.91;;;6.71;100.00
59951;BME280;45812;53.540;9.774;2023-02-12T02:20:24;103600.16;;;6.56;100.00
59951;BME280;45812;53.540;9.774;2023-02-12T02:31:29;103592.34;;;6.53;100.00
59951;BME280;45812;53.540;9.774;2023-02-12T02:36:44;103602.94;;;6.53;100.00
59951;BME280;45812;53.540;9.774;2023-02-12T02:39:20;103594.88;;;6.56;100.00
59951;BME280;45812;53.540;9.774;2023-02-12T02:41:54;103609.94;;;6.75;100.00
59951;BME280;45812;53.540;9.774;2023-02-12T02:44:30;103604.88;;;6.68;100.00
59951;BME280;45812;53.540;9.774;2023-02-12T02:47:00;103605.94;;;6.64;100.00
59951;BME280;45812;53.540;9.774;2023-02-12T02:49:38;103599.88;;;6.62;100.00
59951;BME280;45812;53.540;9.774;2023-02-12T02:52:15;103607.59;;;6.67;100.00
59951;BME280;45812;53.540;9.774;2023-02-12T02:54:45;103610.19;;;6.68;100.00
59951;BME280;45812;53.540;9.774;2023-02-12T02:57:19;103616.28;;;6.71;100.00
59951;BME280;45812;53.540;9.774;2023-02-12T02:59:49;103603.84;;;6.73;100.00
59951;BME280;45812;53.540;9.774;2023-02-12T03:02:25;103609.28;;;6.70;100.00
59951;BME280;45812;53.540;9.774;2023-02-12T03:04:54;103612.78;;;6.70;100.00
59951;BME280;45812;53.540;9.774;2023-02-12T03:07:44;103615.47;;;6.68;100.00
59951;BME280;45812;53.540;9.774;2023-02-12T03:10:16;103612.66;;;6.73;100.00
59951;BME280;45812;53.540;9.774;2023-02-12T03:12:51;103612.72;;;6.72;100.00
59951;BME280;45812;53.540;9.774;2023-02-12T03:15:30;103612.44;;;6.78;100.00
59951;BME280;45812;53.540;9.774;2023-02-12T03:17:58;103613.63;;;6.71;100.00
59951;BME280;45812;53.540;9.774;2023-02-12T03:20:32;103620.91;;;6.65;100.00
59951;BME280;45812;53.540;9.774;2023-02-12T03:23:06;103620.38;;;6.78;100.00
59951;BME280;45812;53.540;9.774;2023-02-12T03:28:16;103610.38;;;6.64;100.00
59951;BME280;45812;53.540;9.774;2023-02-12T03:30:57;103612.72;;;6.72;100.00
59951;BME280;45812;53.540;9.774;2023-02-12T03:33:54;103610.06;;;6.72;100.00
59951;BME280;45812;53.540;9.774;2023-02-12T03:39:29;103615.84;;;6.80;100.00
59951;BME280;45812;53.540;9.774;2023-02-12T03:42:08;103615.66;;;6.84;100.00
59951;BME280;45812;53.540;9.774;2023-02-12T03:44:51;103621.09;;;6.81;100.00
59951;BME280;45812;53.540;9.774;2023-02-12T03:47:24;103633.19;;;6.87;100.00
59951;BME280;45812;53.540;9.774;2023-02-12T03:50:00;103634.97;;;6.86;100.00
59951;BME280;45812;53.540;9.774;2023-02-12T03:52:28;103632.13;;;6.91;100.00
59951;BME280;45812;53.540;9.774;2023-02-12T03:54:53;103642.78;;;6.89;100.00
59951;BME280;45812;53.540;9.774;2023-02-12T03:57:21;103637.28;;;6.94;100.00
59951;BME280;45812;53.540;9.774;2023-02-12T03:59:48;103642.59;;;6.94;100.00
59951;BME280;45812;53.540;9.774;2023-02-12T04:02:15;103649.59;;;6.95;100.00
59951;BME280;45812;53.540;9.774;2023-02-12T04:04:43;103637.94;;;6.99;100.00
59951;BME280;45812;53.540;9.774;2023-02-12T04:07:09;103644.00;;;7.01;100.00
59951;BME280;45812;53.540;9.774;2023-02-12T04:09:35;103644.66;;;7.06;100.00
59951;BME280;45812;53.540;9.774;2023-02-12T04:12:21;103643.00;;;7.04;100.00
59951;BME280;45812;53.540;9.774;2023-02-12T04:15:06;103630.44;;;7.09;100.00
59951;BME280;45812;53.540;9.774;2023-02-12T04:18:00;103638.16;;;7.13;100.00
59951;BME280;45812;53.540;9.774;2023-02-12T04:20:47;103639.88;;;7.14;100.00
59951;BME280;45812;53.540;9.774;2023-02-12T04:23:39;103642.53;;;7.14;100.00
59951;BME280;45812;53.540;9.774;2023-02-12T04:26:24;103652.97;;;7.17;100.00
59951;BME280;45812;53.540;9.774;2023-02-12T04:29:16;103661.06;;;7.14;100.00
59951;BME280;45812;53.540;9.774;2023-02-12T04:31:59;103654.91;;;7.14;100.00
59951;BME280;45812;53.540;9.774;2023-02-12T04:34:38;103664.66;;;7.13;100.00
59951;BME280;45812;53.540;9.774;2023-02-12T04:37:17;103665.72;;;7.09;100.00
59951;BME280;45812;53.540;9.774;2023-02-12T04:39:44;103669.50;;;7.04;100.00
59951;BME280;45812;53.540;9.774;2023-02-12T04:42:10;103664.25;;;7.02;100.00
59951;BME280;45812;53.540;9.774;2023-02-12T04:44:38;103667.84;;;7.01;100.00
59951;BME280;45812;53.540;9.774;2023-02-12T04:47:03;103657.41;;;6.98;100.00
59951;BME280;45812;53.540;9.774;2023-02-12T04:49:29;103663.47;;;7.00;100.00
59951;BME280;45812;53.540;9.774;2023-02-12T04:51:54;103659.19;;;6.97;100.00
59951;BME280;45812;53.540;9.774;2023-02-12T04:54:20;103651.88;;;7.03;100.00
59951;BME280;45812;53.540;9.774;2023-02-12T04:56:46;103658.41;;;6.95;100.00
59951;BME280;45812;53.540;9.774;2023-02-12T04:59:12;103656.06;;;6.88;100.00
59951;BME280;45812;53.540;9.774;2023-02-12T05:01:40;103650.75;;;6.89;100.00
59951;BME280;45812;53.540;9.774;2023-02-12T05:04:06;103656.22;;;6.85;100.00
59951;BME280;45812;53.540;9.774;2023-02-12T05:06:35;103648.94;;;6.90;100.00
59951;BME280;45812;53.540;9.774;2023-02-12T05:09:01;103652.38;;;6.92;100.00
59951;BME280;45812;53.540;9.774;2023-02-12T05:11:26;103654.09;;;6.93;100.00
59951;BME280;45812;53.540;9.774;2023-02-12T05:13:52;103660.19;;;6.95;100.00
59951;BME280;45812;53.540;9.774;2023-02-12T05:16:18;103665.56;;;6.93;100.00
59951;BME280;45812;53.540;9.774;2023-02-12T05:18:44;103668.28;;;6.92;100.00
59951;BME280;45812;53.540;9.774;2023-02-12T05:21:09;103668.06;;;6.96;100.00
59951;BME280;45812;53.540;9.774;2023-02-12T05:23:36;103664.69;;;6.93;100.00
59951;BME280;45812;53.540;9.774;2023-02-12T05:26:09;103673.13;;;7.01;100.00
59951;BME280;45812;53.540;9.774;2023-02-12T05:28:35;103661.97;;;6.94;100.00
59951;BME280;45812;53.540;9.774;2023-02-12T05:31:01;103662.84;;;6.95;100.00
59951;BME280;45812;53.540;9.774;2023-02-12T05:33:27;103668.06;;;6.96;100.00
59951;BME280;45812;53.540;9.774;2023-02-12T05:35:52;103667.84;;;7.01;100.00
59951;BME280;45812;53.540;9.774;2023-02-12T05:38:18;103662.34;;;7.06;100.00
59951;BME280;45812;53.540;9.774;2023-02-12T05:40:43;103664.78;;;7.10;100.00
59951;BME280;45812;53.540;9.774;2023-02-12T05:43:09;103670.88;;;7.12;100.00
59951;BME280;45812;53.540;9.774;2023-02-12T05:45:34;103676.88;;;7.16;100.00
59951;BME280;45812;53.540;9.774;2023-02-12T05:47:59;103677.97;;;7.12;100.00
59951;BME280;45812;53.540;9.774;2023-02-12T05:50:25;103679.63;;;7.14;100.00
59951;BME280;45812;53.540;9.774;2023-02-12T05:52:50;103684.06;;;7.14;100.00
59951;BME280;45812;53.540;9.774;2023-02-12T05:55:15;103684.69;;;7.19;100.00
59951;BME280;45812;53.540;9.774;2023-02-12T05:57:41;103688.34;;;7.16;100.00
59951;BME280;45812;53.540;9.774;2023-02-12T06:00:08;103684.84;;;7.16;100.00
59951;BME280;45812;53.540;9.774;2023-02-12T06:02:34;103680.22;;;7.01;100.00
59951;BME280;45812;53.540;9.774;2023-02-12T06:04:59;103677.78;;;6.96;100.00
59951;BME280;45812;53.540;9.774;2023-02-12T06:07:24;103684.59;;;7.02;100.00
59951;BME280;45812;53.540;9.774;2023-02-12T06:09:50;103680.94;;;7.04;100.00
59951;BME280;45812;53.540;9.774;2023-02-12T06:12:15;103677.19;;;7.10;100.00
59951;BME280;45812;53.540;9.774;2023-02-12T06:14:41;103681.69;;;7.08;100.00
59951;BME280;45812;53.540;9.774;2023-02-12T06:17:06;103687.56;;;7.14;100.00
59951;BME280;45812;53.540;9.774;2023-02-12T06:19:32;103682.34;;;7.13;100.00
59951;BME280;45812;53.540;9.774;2023-02-12T06:21:57;103675.66;;;7.04;100.00
59951;BME280;45812;53.540;9.774;2023-02-12T06:24:22;103690.97;;;6.97;100.00
59951;BME280;45812;53.540;9.774;2023-02-12T06:26:49;103684.53;;;7.03;100.00
59951;BME280;45812;53.540;9.774;2023-02-12T06:29:15;103682.66;;;7.05;100.00
59951;BME280;45812;53.540;9.774;2023-02-12T06:31:40;103687.84;;;7.08;100.00
59951;BME280;45812;53.540;9.774;2023-02-12T06:34:08;103685.78;;;7.15;100.00
59951;BME280;45812;53.540;9.774;2023-02-12T06:36:36;103684.22;;;7.29;100.00
59951;BME280;45812;53.540;9.774;2023-02-12T06:39:02;103691.00;;;7.16;100.00
59951;BME280;45812;53.540;9.774;2023-02-12T06:41:28;103697.28;;;7.14;100.00
59951;BME280;45812;53.540;9.774;2023-02-12T06:43:53;103701.72;;;7.13;100.00
59951;BME280;45812;53.540;9.774;2023-02-12T06:46:19;103704.53;;;7.10;100.00
59951;BME280;45812;53.540;9.774;2023-02-12T06:48:44;103700.66;;;7.17;100.00
59951;BME280;45812;53.540;9.774;2023-02-12T06:51:12;103710.47;;;7.15;100.00
59951;BME280;45812;53.540;9.774;2023-02-12T06:53:38;103712.47;;;7.10;100.00
59951;BME280;45812;53.540;9.774;2023-02-12T06:56:06;103721.72;;;7.20;100.00
59951;BME280;45812;53.540;9.774;2023-02-12T06:58:35;103733.03;;;7.24;100.00
59951;BME280;45812;53.540;9.774;2023-02-12T07:01:15;103729.50;;;7.23;100.00
59951;BME280;45812;53.540;9.774;2023-02-12T07:03:43;103734.75;;;7.25;100.00
59951;BME280;45812;53.540;9.774;2023-02-12T07:06:09;103729.66;;;7.20;100.00
59951;BME280;45812;53.540;9.774;2023-02-12T07:08:35;103733.16;;;7.21;100.00
59951;BME280;45812;53.540;9.774;2023-02-12T07:11:00;103730.53;;;7.21;100.00
59951;BME280;45812;53.540;9.774;2023-02-12T07:13:25;103727.72;;;7.24;100.00
59951;BME280;45812;53.540;9.774;2023-02-12T07:15:51;103741.81;;;7.24;100.00
59951;BME280;45812;53.540;9.774;2023-02-12T07:18:16;103742.75;;;7.23;100.00
59951;BME280;45812;53.540;9.774;2023-02-12T07:20:41;103742.28;;;7.34;100.00
59951;BME280;45812;53.540;9.774;2023-02-12T07:23:10;103741.72;;;7.27;100.00
59951;BME280;45812;53.540;9.774;2023-02-12T07:25:35;103748.59;;;7.32;100.00
59951;BME280;45812;53.540;9.774;2023-02-12T07:28:00;103750.25;;;7.34;100.00
59951;BME280;45812;53.540;9.774;2023-02-12T07:30:25;103753.75;;;7.35;100.00
59951;BME280;45812;53.540;9.774;2023-02-12T07:32:51;103762.19;;;7.43;100.00
59951;BME280;45812;53.540;9.774;2023-02-12T07:35:16;103771.00;;;7.43;100.00
59951;BME280;45812;53.540;9.774;2023-02-12T07:37:41;103762.50;;;7.37;100.00
59951;BME280;45812;53.540;9.774;2023-02-12T07:40:07;103755.72;;;7.50;100.00
59951;BME280;45812;53.540;9.774;2023-02-12T07:42:32;103759.44;;;7.46;100.00
59951;BME280;45812;53.540;9.774;2023-02-12T07:44:57;103759.50;;;7.44;100.00
59951;BME280;45812;53.540;9.774;2023-02-12T07:47:23;103761.66;;;7.55;100.00
59951;BME280;45812;53.540;9.774;2023-02-12T07:49:48;103765.09;;;7.57;100.00
59951;BME280;45812;53.540;9.774;2023-02-12T07:52:13;103762.81;;;7.68;100.00
59951;BME280;45812;53.540;9.774;2023-02-12T07:54:38;103761.31;;;7.63;100.00
59951;BME280;45812;53.540;9.774;2023-02-12T07:57:04;103771.63;;;7.69;100.00
59951;BME280;45812;53.540;9.774;2023-02-12T07:59:29;103762.50;;;7.74;100.00
59951;BME280;45812;53.540;9.774;2023-02-12T08:01:54;103763.66;;;7.87;100.00
59951;BME280;45812;53.540;9.774;2023-02-12T08:04:23;103761.31;;;7.81;100.00
59951;BME280;45812;53.540;9.774;2023-02-12T08:06:51;103761.00;;;7.87;100.00
59951;BME280;45812;53.540;9.774;2023-02-12T08:09:20;103758.84;;;7.96;100.00
59951;BME280;45812;53.540;9.774;2023-02-12T08:11:46;103764.16;;;7.96;100.00
59951;BME280;45812;53.540;9.774;2023-02-12T08:14:13;103767.38;;;8.02;100.00
59951;BME280;45812;53.540;9.774;2023-02-12T08:16:40;103766.38;;;8.05;100.00
59951;BME280;45812;53.540;9.774;2023-02-12T08:19:06;103768.94;;;8.06;100.00
59951;BME280;45812;53.540;9.774;2023-02-12T08:21:31;103767.22;;;8.05;100.00
59951;BME280;45812;53.540;9.774;2023-02-12T08:23:57;103767.88;;;8.10;100.00
59951;BME280;45812;53.540;9.774;2023-02-12T08:26:28;103775.75;;;8.12;100.00
59951;BME280;45812;53.540;9.774;2023-02-12T08:28:56;103780.28;;;8.10;100.00
59951;BME280;45812;53.540;9.774;2023-02-12T08:31:25;103779.88;;;8.17;100.00
59951;BME280;45812;53.540;9.774;2023-02-12T08:33:52;103779.41;;;8.09;100.00
59951;BME280;45812;53.540;9.774;2023-02-12T08:36:20;103785.28;;;8.16;100.00
59951;BME280;45812;53.540;9.774;2023-02-12T08:38:47;103783.41;;;8.18;100.00
59951;BME280;45812;53.540;9.774;2023-02-12T08:41:15;103785.78;;;8.24;100.00
59951;BME280;45812;53.540;9.774;2023-02-12T08:43:42;103787.72;;;8.20;100.00
59951;BME280;45812;53.540;9.774;2023-02-12T08:46:10;103788.59;;;8.21;100.00
59951;BME280;45812;53.540;9.774;2023-02-12T08:48:36;103789.59;;;8.18;100.00
59951;BME280;45812;53.540;9.774;2023-02-12T08:51:25;103797.81;;;8.31;100.00
59951;BME280;45812;53.540;9.774;2023-02-12T08:53:52;103795.03;;;8.34;100.00
59951;BME280;45812;53.540;9.774;2023-02-12T08:56:18;103795.94;;;8.33;100.00
59951;BME280;45812;53.540;9.774;2023-02-12T08:58:44;103806.50;;;8.35;100.00
59951;BME280;45812;53.540;9.774;2023-02-12T09:01:13;103814.47;;;8.35;100.00
59951;BME280;45812;53.540;9.774;2023-02-12T09:03:40;103811.06;;;8.31;100.00
59951;BME280;45812;53.540;9.774;2023-02-12T09:06:05;103806.56;;;8.33;100.00
59951;BME280;45812;53.540;9.774;2023-02-12T09:08:31;103808.97;;;8.39;100.00
59951;BME280;45812;53.540;9.774;2023-02-12T09:10:57;103812.75;;;8.34;100.00
59951;BME280;45812;53.540;9.774;2023-02-12T09:13:23;103803.78;;;8.36;100.00
59951;BME280;45812;53.540;9.774;2023-02-12T09:15:49;103816.84;;;8.41;100.00
59951;BME280;45812;53.540;9.774;2023-02-12T09:18:14;103811.69;;;8.38;100.00
59951;BME280;45812;53.540;9.774;2023-02-12T09:20:42;103816.91;;;8.39;100.00
59951;BME280;45812;53.540;9.774;2023-02-12T09:23:10;103808.66;;;8.27;100.00
59951;BME280;45812;53.540;9.774;2023-02-12T09:25:41;103813.88;;;8.28;100.00
59951;BME280;45812;53.540;9.774;2023-02-12T09:28:07;103811.72;;;8.36;100.00
59951;BME280;45812;53.540;9.774;2023-02-12T09:30:35;103807.78;;;8.26;100.00
59951;BME280;45812;53.540;9.774;2023-02-12T09:33:01;103808.88;;;8.41;100.00
59951;BME280;45812;53.540;9.774;2023-02-12T09:35:26;103811.63;;;8.39;100.00
59951;BME280;45812;53.540;9.774;2023-02-12T09:37:52;103817.84;;;8.38;100.00
59951;BME280;45812;53.540;9.774;2023-02-12T09:40:50;103827.16;;;8.28;100.00
59951;BME280;45812;53.540;9.774;2023-02-12T09:46:27;103834.97;;;8.31;100.00
59951;BME280;45812;53.540;9.774;2023-02-12T09:51:28;103835.97;;;8.47;100.00
59951;BME280;45812;53.540;9.774;2023-02-12T09:54:02;103835.53;;;8.57;100.00
59951;BME280;45812;53.540;9.774;2023-02-12T09:56:28;103831.16;;;8.56;100.00
59951;BME280;45812;53.540;9.774;2023-02-12T09:58:58;103835.34;;;8.42;100.00
59951;BME280;45812;53.540;9.774;2023-02-12T10:01:26;103841.28;;;8.47;100.00
59951;BME280;45812;53.540;9.774;2023-02-12T10:03:52;103844.28;;;8.59;100.00
59951;BME280;45812;53.540;9.774;2023-02-12T10:06:26;103845.78;;;8.64;100.00
59951;BME280;45812;53.540;9.774;2023-02-12T10:14:15;103854.94;;;8.76;100.00
59951;BME280;45812;53.540;9.774;2023-02-12T10:17:00;103857.81;;;8.71;100.00
59951;BME280;45812;53.540;9.774;2023-02-12T10:25:05;103858.00;;;8.49;100.00
59951;BME280;45812;53.540;9.774;2023-02-12T10:30:13;103851.44;;;8.39;100.00
59951;BME280;45812;53.540;9.774;2023-02-12T10:32:42;103844.16;;;8.43;100.00
59951;BME280;45812;53.540;9.774;2023-02-12T10:35:14;103845.31;;;8.56;100.00
59951;BME280;45812;53.540;9.774;2023-02-12T10:37:49;103849.81;;;8.54;100.00
59951;BME280;45812;53.540;9.774;2023-02-12T10:40:30;103848.94;;;8.54;100.00
59951;BME280;45812;53.540;9.774;2023-02-12T10:42:59;103843.19;;;8.63;100.00
59951;BME280;45812;53.540;9.774;2023-02-12T10:45:36;103833.19;;;8.68;100.00
59951;BME280;45812;53.540;9.774;2023-02-12T10:48:26;103847.91;;;8.75;100.00
59951;BME280;45812;53.540;9.774;2023-02-12T10:51:18;103847.91;;;8.75;100.00
59951;BME280;45812;53.540;9.774;2023-02-12T10:53:44;103849.16;;;8.85;100.00
59951;BME280;45812;53.540;9.774;2023-02-12T10:58:35;103843.03;;;8.66;100.00
59951;BME280;45812;53.540;9.774;2023-02-12T11:01:03;103834.03;;;8.51;100.00
59951;BME280;45812;53.540;9.774;2023-02-12T11:03:31;103840.19;;;8.52;100.00
59951;BME280;45812;53.540;9.774;2023-02-12T11:06:30;103839.19;;;8.54;100.00
59951;BME280;45812;53.540;9.774;2023-02-12T11:08:57;103835.19;;;8.82;100.00
59951;BME280;45812;53.540;9.774;2023-02-12T11:11:26;103835.50;;;8.93;100.00
59951;BME280;45812;53.540;9.774;2023-02-12T11:14:15;103832.53;;;8.82;100.00
59951;BME280;45812;53.540;9.774;2023-02-12T11:16:50;103826.66;;;8.92;100.00
59951;BME280;45812;53.540;9.774;2023-02-12T11:19:21;103823.63;;;9.00;100.00
59951;BME280;45812;53.540;9.774;2023-02-12T11:21:48;103825.00;;;9.07;100.00
59951;BME280;45812;53.540;9.774;2023-02-12T11:24:31;103830.97;;;8.95;100.00
59951;BME280;45812;53.540;9.774;2023-02-12T11:27:19;103826.97;;;8.86;100.00
59951;BME280;45812;53.540;9.774;2023-02-12T11:29:45;103827.22;;;8.82;100.00
59951;BME280;45812;53.540;9.774;2023-02-12T11:32:17;103832.97;;;8.90;100.00
59951;BME280;45812;53.540;9.774;2023-02-12T11:34:43;103823.22;;;9.07;100.00
59951;BME280;45812;53.540;9.774;2023-02-12T11:37:17;103821.34;;;9.09;100.00
59951;BME280;45812;53.540;9.774;2023-02-12T11:39:46;103816.50;;;9.00;100.00
59951;BME280;45812;53.540;9.774;2023-02-12T11:42:18;103819.94;;;8.85;100.00
59951;BME280;45812;53.540;9.774;2023-02-12T11:44:49;103812.81;;;8.86;100.00
59951;BME280;45812;53.540;9.774;2023-02-12T11:47:19;103816.19;;;9.06;100.00
59951;BME280;45812;53.540;9.774;2023-02-12T11:49:55;103817.13;;;8.88;100.00
59951;BME280;45812;53.540;9.774;2023-02-12T11:52:28;103812.91;;;8.84;100.00
59951;BME280;45812;53.540;9.774;2023-02-12T11:54:58;103807.13;;;8.76;100.00
59951;BME280;45812;53.540;9.774;2023-02-12T12:00:15;103811.81;;;8.88;100.00
59951;BME280;45812;53.540;9.774;2023-02-12T12:02:52;103812.59;;;8.90;100.00
59951;BME280;45812;53.540;9.774;2023-02-12T12:05:20;103807.44;;;8.87;100.00
59951;BME280;45812;53.540;9.774;2023-02-12T12:07:53;103819.31;;;8.80;100.00
59951;BME280;45812;53.540;9.774;2023-02-12T12:10:31;103809.81;;;8.93;100.00
59951;BME280;45812;53.540;9.774;2023-02-12T12:13:03;103808.94;;;8.93;100.00
59951;BME280;45812;53.540;9.774;2023-02-12T12:15:32;103818.47;;;8.97;100.00
59951;BME280;45812;53.540;9.774;2023-02-12T12:21:24;103800.56;;;9.18;100.00
59951;BME280;45812;53.540;9.774;2023-02-12T12:24:08;103802.28;;;9.19;100.00
59951;BME280;45812;53.540;9.774;2023-02-12T12:26:34;103798.28;;;9.10;100.00
59951;BME280;45812;53.540;9.774;2023-02-12T12:29:20;103797.41;;;9.27;100.00
59951;BME280;45812;53.540;9.774;2023-02-12T12:31:55;103795.03;;;9.38;100.00
59951;BME280;45812;53.540;9.774;2023-02-12T12:34:23;103795.06;;;9.21;100.00
59951;BME280;45812;53.540;9.774;2023-02-12T12:37:08;103795.69;;;9.08;100.00
59951;BME280;45812;53.540;9.774;2023-02-12T12:42:58;103789.41;;;9.11;100.00
59951;BME280;45812;53.540;9.774;2023-02-12T12:45:38;103784.00;;;9.13;100.00
59951;BME280;45812;53.540;9.774;2023-02-12T12:48:13;103780.72;;;9.40;100.00
59951;BME280;45812;53.540;9.774;2023-02-12T12:51:10;103785.03;;;9.26;100.00
59951;BME280;45812;53.540;9.774;2023-02-12T12:56:38;103768.63;;;9.35;100.00
59951;BME280;45812;53.540;9.774;2023-02-12T12:59:28;103767.13;;;9.62;100.00
59951;BME280;45812;53.540;9.774;2023-02-12T13:07:38;103764.00;;;9.38;100.00
59951;BME280;45812;53.540;9.774;2023-02-12T13:10:16;103767.09;;;9.14;100.00
59951;BME280;45812;53.540;9.774;2023-02-12T13:12:51;103769.91;;;9.10;100.00
59951;BME280;45812;53.540;9.774;2023-02-12T13:15:27;103763.03;;;9.06;100.00
59951;BME280;45812;53.540;9.774;2023-02-12T13:23:27;103761.13;;;8.93;100.00
59951;BME280;45812;53.540;9.774;2023-02-12T13:26:22;103758.69;;;8.88;100.00
59951;BME280;45812;53.540;9.774;2023-02-12T13:28:55;103754.00;;;8.93;100.00
59951;BME280;45812;53.540;9.774;2023-02-12T13:31:23;103757.56;;;8.92;100.00
59951;BME280;45812;53.540;9.774;2023-02-12T13:34:02;103754.47;;;9.01;100.00
59951;BME280;45812;53.540;9.774;2023-02-12T13:36:28;103756.19;;;9.02;100.00
59951;BME280;45812;53.540;9.774;2023-02-12T13:39:06;103756.19;;;9.02;100.00
59951;BME280;45812;53.540;9.774;2023-02-12T13:41:34;103760.09;;;9.13;100.00
59951;BME280;45812;53.540;9.774;2023-02-12T13:44:16;103758.97;;;9.17;100.00
59951;BME280;45812;53.540;9.774;2023-02-12T13:49:40;103760.81;;;8.82;100.00
59951;BME280;45812;53.540;9.774;2023-02-12T13:55:22;103757.63;;;8.75;100.00
59951;BME280;45812;53.540;9.774;2023-02-12T14:03:23;103759.78;;;8.67;100.00
59951;BME280;45812;53.540;9.774;2023-02-12T14:06:06;103752.66;;;8.50;100.00
59951;BME280;45812;53.540;9.774;2023-02-12T14:08:38;103750.59;;;8.57;100.00
59951;BME280;45812;53.540;9.774;2023-02-12T14:11:25;103749.25;;;8.65;100.00
59951;BME280;45812;53.540;9.774;2023-02-12T14:13:59;103748.38;;;8.82;100.00
59951;BME280;45812;53.540;9.774;2023-02-12T14:21:58;103742.28;;;9.46;100.00
59951;BME280;45812;53.540;9.774;2023-02-12T14:27:03;103747.13;;;9.55;100.00
59951;BME280;45812;53.540;9.774;2023-02-12T14:29:30;103741.44;;;9.30;100.00